createdAt,value
2018-08-13T00:01:09.540Z,48.80
2018-08-13T00:03:38.204Z,48.80
2018-08-13T00:06:06.692Z,49.10
2018-08-13T00:08:35.219Z,49.20
2018-08-13T00:11:03.730Z,49.30
2018-08-13T00:13:32.195Z,49.40
2018-08-13T00:16:00.665Z,49.80
2018-08-13T00:18:29.101Z,49.80
2018-08-13T00:20:57.591Z,49.80
2018-08-13T00:23:26.013Z,49.90
2018-08-13T00:25:54.506Z,50.00
2018-08-13T00:28:22.960Z,50.20
2018-08-13T00:30:51.397Z,50.00
2018-08-13T00:33:19.852Z,49.80
2018-08-13T00:35:48.319Z,49.60
2018-08-13T00:38:16.819Z,49.60
2018-08-13T00:40:45.264Z,49.70
2018-08-13T00:43:13.792Z,50.00
2018-08-13T00:45:42.277Z,50.50
2018-08-13T00:48:10.748Z,50.60
2018-08-13T00:50:39.816Z,50.80
2018-08-13T00:53:08.324Z,51.10
2018-08-13T00:55:36.769Z,51.20
2018-08-13T00:58:05.598Z,51.30
2018-08-13T01:00:34.248Z,51.30
2018-08-13T01:03:02.667Z,51.50
2018-08-13T01:05:31.277Z,51.70
2018-08-13T01:07:59.764Z,51.80
2018-08-13T01:10:28.292Z,51.90
2018-08-13T01:12:56.772Z,51.70
2018-08-13T01:28:30.064Z,51.50
2018-08-13T01:30:58.560Z,51.70
2018-08-13T01:33:26.990Z,54.00
2018-08-13T01:35:55.444Z,54.00
2018-08-13T01:38:23.918Z,54.30
2018-08-13T01:40:52.360Z,54.00
2018-08-13T01:43:20.844Z,53.90
2018-08-13T01:45:49.313Z,54.70
2018-08-13T01:48:17.799Z,54.00
2018-08-13T01:50:46.251Z,54.30
2018-08-13T01:53:14.715Z,54.30
2018-08-13T01:55:43.216Z,54.30
2018-08-13T01:58:11.783Z,54.20
2018-08-13T02:00:40.515Z,54.00
2018-08-13T02:03:08.968Z,54.10
2018-08-13T02:05:37.661Z,54.20
2018-08-13T02:08:06.317Z,54.00
2018-08-13T02:10:34.820Z,53.80
2018-08-13T02:13:03.564Z,53.80
2018-08-13T02:15:32.065Z,53.40
2018-08-13T02:18:00.530Z,53.00
2018-08-13T02:33:28.629Z,52.60
2018-08-13T02:35:57.138Z,52.20
2018-08-13T02:38:25.658Z,52.00
2018-08-13T02:40:54.167Z,51.90
2018-08-13T02:43:22.663Z,51.90
2018-08-13T02:45:51.146Z,51.40
2018-08-13T02:48:19.642Z,51.80
2018-08-13T02:50:48.404Z,52.00
2018-08-13T02:53:16.899Z,51.80
2018-08-13T02:55:45.669Z,51.50
2018-08-13T02:58:14.233Z,51.90
2018-08-13T03:00:42.908Z,51.80
2018-08-13T03:03:11.612Z,51.70
2018-08-13T03:05:40.113Z,51.80
2018-08-13T03:08:08.628Z,51.80
2018-08-13T03:10:37.151Z,51.80
2018-08-13T03:13:05.925Z,51.60
2018-08-13T03:15:34.440Z,51.70
2018-08-13T03:18:03.042Z,52.30
2018-08-13T03:20:31.563Z,52.20
2018-08-13T03:23:00.062Z,52.00
2018-08-13T03:25:28.525Z,52.00
2018-08-13T03:27:57.012Z,51.90
2018-08-13T03:30:25.536Z,52.00
2018-08-13T03:32:54.093Z,51.80
2018-08-13T03:35:22.566Z,52.00
2018-08-13T03:37:51.015Z,52.20
2018-08-13T03:40:19.497Z,52.00
2018-08-13T03:42:47.952Z,51.80
2018-08-13T03:45:16.572Z,51.70
2018-08-13T03:47:45.009Z,50.90
2018-08-13T03:50:13.499Z,50.90
2018-08-13T03:52:42.720Z,50.60
2018-08-13T03:55:12.110Z,50.70
2018-08-13T03:57:41.496Z,50.90
2018-08-13T04:00:13.698Z,51.00
2018-08-13T04:02:42.468Z,51.10
2018-08-13T04:05:11.518Z,51.10
2018-08-13T04:07:40.880Z,51.30
2018-08-13T04:23:09.688Z,51.60
2018-08-13T04:25:38.201Z,51.60
2018-08-13T04:28:07.266Z,55.40
2018-08-13T04:30:36.252Z,56.80
2018-08-13T04:33:10.566Z,60.50
2018-08-13T04:35:39.302Z,61.90
2018-08-13T04:38:08.185Z,64.00
2018-08-13T04:40:36.626Z,64.90
2018-08-13T04:43:05.186Z,68.30
2018-08-13T04:45:33.995Z,70.90
2018-08-13T04:48:02.492Z,74.40
2018-08-13T04:50:31.088Z,77.50
2018-08-13T04:52:59.688Z,80.20
2018-08-13T04:55:28.246Z,82.40
2018-08-13T04:57:56.717Z,85.40
2018-08-13T05:00:25.159Z,88.30
2018-08-13T05:02:53.659Z,90.60
2018-08-13T05:05:23.587Z,91.10
2018-08-13T05:07:52.020Z,92.20
2018-08-13T05:10:20.545Z,92.70
2018-08-13T05:12:49.044Z,94.80
2018-08-13T05:15:17.516Z,95.90
2018-08-13T05:17:46.015Z,96.50
2018-08-13T05:20:14.532Z,96.60
2018-08-13T05:22:43.289Z,96.70
2018-08-13T05:25:12.111Z,97.20
2018-08-13T05:27:41.362Z,98.20
2018-08-13T05:30:11.228Z,98.30
2018-08-13T05:32:39.699Z,99.20
2018-08-13T05:35:09.212Z,99.90
2018-08-13T05:37:38.473Z,99.90
2018-08-13T05:40:08.761Z,99.60
2018-08-13T05:42:37.371Z,99.80
2018-08-13T05:45:07.049Z,99.60
2018-08-13T05:47:35.562Z,99.60
2018-08-13T05:50:04.883Z,99.90
2018-08-13T05:52:33.333Z,99.90
2018-08-13T05:55:01.871Z,99.90
2018-08-13T05:57:30.324Z,99.90
2018-08-13T05:59:58.777Z,99.90
2018-08-13T06:02:27.229Z,99.90
2018-08-13T06:04:55.709Z,99.90
2018-08-13T06:07:24.142Z,99.90
2018-08-13T06:09:52.673Z,99.90
2018-08-13T06:12:21.169Z,99.90
2018-08-13T06:14:49.662Z,99.90
2018-08-13T06:17:18.122Z,99.90
2018-08-13T06:19:46.668Z,99.90
2018-08-13T06:22:15.144Z,99.90
2018-08-13T06:24:43.675Z,99.90
2018-08-13T06:27:12.193Z,99.90
2018-08-13T06:29:40.665Z,99.90
2018-08-13T06:32:09.197Z,99.90
2018-08-13T06:34:37.777Z,99.90
2018-08-13T06:37:06.590Z,99.90
2018-08-13T06:39:35.013Z,99.90
2018-08-13T06:42:03.543Z,99.90
2018-08-13T06:44:32.030Z,99.90
2018-08-13T06:47:00.563Z,99.90
2018-08-13T06:49:29.371Z,99.90
2018-08-13T06:51:58.498Z,99.90
2018-08-13T06:54:27.176Z,99.90
2018-08-13T06:56:55.642Z,99.90
2018-08-13T06:59:24.098Z,99.90
2018-08-13T07:01:52.698Z,99.90
2018-08-13T07:04:21.412Z,99.90
2018-08-13T07:06:50.385Z,99.90
2018-08-13T07:22:18.881Z,99.90
2018-08-13T07:24:48.153Z,99.90
2018-08-13T07:27:17.818Z,99.90
2018-08-13T07:29:46.538Z,99.90
2018-08-13T07:32:15.475Z,99.90
2018-08-13T07:34:44.217Z,99.90
2018-08-13T07:37:12.987Z,99.90
2018-08-13T07:39:41.769Z,99.90
2018-08-13T07:42:11.684Z,99.90
2018-08-13T07:44:40.393Z,99.90
2018-08-13T07:47:09.401Z,99.90
2018-08-13T07:49:38.365Z,99.90
2018-08-13T07:52:06.856Z,99.90
2018-08-13T07:54:35.365Z,99.90
2018-08-13T07:57:03.949Z,99.90
2018-08-13T07:59:32.534Z,99.90
2018-08-13T08:02:01.133Z,99.90
2018-08-13T08:04:29.598Z,99.90
2018-08-13T08:06:58.573Z,99.90
2018-08-13T08:09:27.064Z,99.90
2018-08-13T08:11:55.574Z,99.90
2018-08-13T08:14:24.397Z,99.90
2018-08-13T08:16:52.845Z,99.90
2018-08-13T08:19:21.460Z,99.90
2018-08-13T08:21:50.352Z,99.90
2018-08-13T08:24:19.029Z,99.90
2018-08-13T08:26:47.560Z,99.90
2018-08-13T08:29:16.293Z,99.90
2018-08-13T08:31:44.878Z,99.90
2018-08-13T08:34:13.697Z,99.90
2018-08-13T08:36:42.317Z,99.90
2018-08-13T08:39:15.120Z,99.90
2018-08-13T08:41:44.655Z,99.90
2018-08-13T08:44:13.326Z,99.90
2018-08-13T08:46:41.896Z,99.90
2018-08-13T08:49:10.820Z,99.90
2018-08-13T08:51:40.363Z,99.90
2018-08-13T08:54:10.878Z,99.90
2018-08-13T08:56:39.589Z,99.90
2018-08-13T08:59:09.613Z,99.90
2018-08-13T09:01:38.987Z,99.90
2018-08-13T09:04:08.891Z,99.90
2018-08-13T09:06:37.826Z,99.90
2018-08-13T09:09:11.116Z,99.90
2018-08-13T09:11:39.710Z,99.90
2018-08-13T09:14:08.838Z,99.90
2018-08-13T09:16:38.458Z,99.90
2018-08-13T09:19:18.145Z,99.90
2018-08-13T09:21:50.162Z,99.90
2018-08-13T09:24:30.059Z,99.90
2018-08-13T09:27:09.864Z,99.90
2018-08-13T09:29:49.618Z,99.90
2018-08-13T09:32:31.632Z,99.90
2018-08-13T09:35:13.029Z,99.90
2018-08-13T09:37:41.656Z,99.90
2018-08-13T09:40:10.829Z,99.90
2018-08-13T09:42:39.406Z,99.90
2018-08-13T09:45:08.769Z,99.90
2018-08-13T09:47:38.301Z,99.90
2018-08-13T09:50:09.659Z,99.90
2018-08-13T09:52:38.182Z,99.90
2018-08-13T09:55:08.285Z,99.90
2018-08-13T09:57:36.970Z,99.90
2018-08-13T10:00:07.792Z,99.90
2018-08-13T10:02:36.443Z,99.90
2018-08-13T10:05:04.985Z,99.90
2018-08-13T10:07:33.608Z,99.90
2018-08-13T10:10:02.158Z,99.90
2018-08-13T10:12:30.647Z,99.90
2018-08-13T10:14:59.963Z,99.90
2018-08-13T10:17:28.608Z,99.90
2018-08-13T10:19:57.260Z,98.00
2018-08-13T10:22:26.457Z,97.30
2018-08-13T10:24:55.512Z,98.60
2018-08-13T10:27:24.519Z,92.90
2018-08-13T10:29:53.808Z,92.20
2018-08-13T10:32:22.481Z,90.60
2018-08-13T10:34:51.276Z,92.50
2018-08-13T10:37:20.006Z,91.70
2018-08-13T10:39:48.737Z,89.30
2018-08-13T10:42:17.423Z,89.10
2018-08-13T10:44:46.455Z,90.50
2018-08-13T10:47:15.261Z,91.00
2018-08-13T10:49:44.024Z,90.10
2018-08-13T10:52:12.770Z,92.00
2018-08-13T10:54:41.602Z,92.40
2018-08-13T10:57:10.352Z,91.30
2018-08-13T10:59:38.992Z,92.60
2018-08-13T11:02:07.801Z,94.40
2018-08-13T11:04:36.690Z,91.30
2018-08-13T11:07:05.969Z,89.10
2018-08-13T11:09:34.840Z,84.90
2018-08-13T11:12:03.985Z,80.70
2018-08-13T11:14:32.719Z,77.50
2018-08-13T11:17:01.878Z,73.70
2018-08-13T11:19:30.724Z,73.90
2018-08-13T11:21:59.637Z,80.60
2018-08-13T11:24:28.512Z,74.20
2018-08-13T11:26:57.359Z,73.80
2018-08-13T11:29:26.234Z,75.40
2018-08-13T11:31:54.825Z,79.90
2018-08-13T11:34:23.433Z,86.60
2018-08-13T11:36:51.911Z,82.00
2018-08-13T11:39:20.619Z,79.70
2018-08-13T11:41:49.088Z,90.70
2018-08-13T11:44:17.567Z,85.00
2018-08-13T11:46:46.104Z,79.70
2018-08-13T11:49:14.651Z,80.80
2018-08-13T11:51:43.114Z,75.40
2018-08-13T11:54:11.590Z,75.00
2018-08-13T11:56:40.078Z,71.70
2018-08-13T11:59:08.614Z,75.30
2018-08-13T12:01:37.129Z,70.50
2018-08-13T12:04:05.622Z,70.40
2018-08-13T12:06:34.161Z,71.20
2018-08-13T12:09:02.752Z,70.40
2018-08-13T12:11:31.308Z,70.00
2018-08-13T12:13:59.886Z,72.30
2018-08-13T12:16:28.369Z,73.40
2018-08-13T12:18:56.824Z,73.10
2018-08-13T12:21:25.552Z,71.30
2018-08-13T12:23:54.124Z,70.40
2018-08-13T12:26:22.695Z,70.90
2018-08-13T12:28:51.196Z,71.40
2018-08-13T12:31:20.072Z,72.70
2018-08-13T12:33:48.595Z,79.70
2018-08-13T12:36:17.141Z,86.70
2018-08-13T12:38:45.930Z,90.90
2018-08-13T12:41:14.557Z,94.50
2018-08-13T12:43:43.168Z,97.40
2018-08-13T12:46:12.178Z,99.90
2018-08-13T12:48:40.789Z,99.90
2018-08-13T13:04:14.186Z,99.90
2018-08-13T13:06:42.720Z,99.90
2018-08-13T13:09:12.632Z,99.90
2018-08-13T13:11:42.304Z,99.90
2018-08-13T13:14:11.671Z,99.90
2018-08-13T13:16:40.826Z,99.90
2018-08-13T13:19:10.328Z,99.90
2018-08-13T13:21:39.467Z,99.50
2018-08-13T13:24:08.671Z,97.70
2018-08-13T13:26:37.558Z,95.80
2018-08-13T13:29:06.784Z,93.20
2018-08-13T13:31:35.522Z,88.40
2018-08-13T13:34:04.512Z,85.00
2018-08-13T13:36:33.449Z,85.00
2018-08-13T13:39:02.106Z,82.30
2018-08-13T13:41:31.084Z,78.50
2018-08-13T13:43:59.796Z,72.30
2018-08-13T13:46:28.817Z,71.50
2018-08-13T13:48:58.123Z,71.40
2018-08-13T13:51:26.926Z,70.40
2018-08-13T13:53:55.794Z,71.50
2018-08-13T13:56:24.541Z,72.20
2018-08-13T13:58:53.335Z,70.40
2018-08-13T14:01:21.951Z,70.10
2018-08-13T14:03:50.772Z,69.10
2018-08-13T14:06:19.710Z,69.30
2018-08-13T14:08:48.550Z,69.30
2018-08-13T14:11:17.373Z,68.30
2018-08-13T14:13:46.277Z,68.10
2018-08-13T14:16:15.244Z,67.60
2018-08-13T14:18:43.817Z,66.70
2018-08-13T14:21:12.543Z,65.80
2018-08-13T14:23:41.558Z,64.50
2018-08-13T14:26:10.572Z,60.50
2018-08-13T14:28:39.136Z,61.40
2018-08-13T14:31:07.982Z,64.60
2018-08-13T14:33:36.844Z,67.80
2018-08-13T14:36:05.490Z,70.90
2018-08-13T14:38:40.535Z,71.80
2018-08-13T14:41:09.501Z,72.80
2018-08-13T14:43:38.253Z,73.40
2018-08-13T14:46:07.723Z,73.30
2018-08-13T14:48:36.244Z,73.00
2018-08-13T14:51:05.838Z,72.50
2018-08-13T14:53:34.443Z,72.70
2018-08-13T14:56:02.973Z,72.40
2018-08-13T14:58:31.600Z,71.70
2018-08-13T15:01:00.131Z,71.50
2018-08-13T15:03:28.735Z,69.90
2018-08-13T15:05:57.240Z,69.50
2018-08-13T15:08:25.768Z,68.80
2018-08-13T15:10:54.274Z,69.10
2018-08-13T15:13:22.966Z,68.80
2018-08-13T15:15:51.833Z,68.70
2018-08-13T15:18:20.377Z,68.50
2018-08-13T15:20:48.967Z,68.50
2018-08-13T15:23:17.424Z,68.10
2018-08-13T15:25:46.037Z,67.00
2018-08-13T15:28:14.816Z,66.80
2018-08-13T15:30:43.267Z,67.80
2018-08-13T15:33:11.792Z,67.00
2018-08-13T15:35:40.436Z,66.70
2018-08-13T15:38:09.003Z,66.10
2018-08-13T15:40:37.551Z,65.00
2018-08-13T15:43:06.005Z,64.10
2018-08-13T15:45:34.571Z,63.70
2018-08-13T15:48:03.302Z,63.80
2018-08-13T15:50:31.949Z,63.80
2018-08-13T15:53:00.593Z,64.50
2018-08-13T15:55:29.147Z,64.60
2018-08-13T15:57:57.693Z,64.10
2018-08-13T16:00:27.413Z,61.10
2018-08-13T16:02:56.160Z,59.20
2018-08-13T16:05:24.890Z,58.80
2018-08-13T16:07:53.825Z,59.30
2018-08-13T16:10:22.303Z,59.60
2018-08-13T16:12:50.837Z,60.30
2018-08-13T16:15:19.357Z,59.70
2018-08-13T16:17:47.854Z,60.30
2018-08-13T16:20:18.503Z,61.00
2018-08-13T16:22:47.744Z,61.00
2018-08-13T16:25:16.931Z,60.50
2018-08-13T16:27:47.014Z,60.40
2018-08-13T16:30:20.467Z,60.90
2018-08-13T16:32:49.550Z,60.80
2018-08-13T16:35:19.112Z,60.70
2018-08-13T16:37:48.308Z,60.90
2018-08-13T16:40:17.808Z,61.00
2018-08-13T16:42:47.068Z,61.20
2018-08-13T16:45:16.852Z,61.70
2018-08-13T16:47:45.400Z,61.50
2018-08-13T16:50:23.105Z,59.80
2018-08-13T16:52:53.035Z,59.20
2018-08-13T16:55:21.605Z,58.90
2018-08-13T16:57:50.090Z,59.00
2018-08-13T17:00:23.596Z,59.30
2018-08-13T17:02:52.582Z,59.90
2018-08-13T17:05:21.331Z,59.90
2018-08-13T17:07:49.933Z,60.30
2018-08-13T17:10:21.155Z,60.20
2018-08-13T17:12:51.082Z,60.50
2018-08-13T17:15:19.946Z,61.20
2018-08-13T17:17:51.091Z,61.20
2018-08-13T17:20:37.307Z,61.20
2018-08-13T17:23:05.913Z,61.00
2018-08-13T17:25:34.410Z,61.40
2018-08-13T17:28:03.458Z,61.90
2018-08-13T17:30:32.683Z,62.40
2018-08-13T17:33:02.006Z,63.10
2018-08-13T17:35:32.685Z,64.00
2018-08-13T17:38:02.744Z,64.80
2018-08-13T17:40:31.779Z,65.40
2018-08-13T17:43:00.855Z,65.80
2018-08-13T17:45:29.401Z,66.00
2018-08-13T17:47:57.928Z,66.40
2018-08-13T17:50:26.537Z,66.70
2018-08-13T17:52:55.007Z,67.30
2018-08-13T17:55:23.664Z,67.40
2018-08-13T17:57:52.293Z,67.50
2018-08-13T18:00:22.504Z,67.80
2018-08-13T18:02:51.022Z,68.00
2018-08-13T18:05:21.761Z,68.20
2018-08-13T18:07:50.904Z,68.50
2018-08-13T18:10:25.910Z,69.00
2018-08-13T18:12:55.215Z,69.40
2018-08-13T18:15:23.789Z,69.60
2018-08-13T18:17:52.361Z,69.80
2018-08-13T18:20:21.061Z,70.40
2018-08-13T18:22:49.621Z,70.80
2018-08-13T18:25:18.294Z,71.10
2018-08-13T18:27:48.068Z,71.70
2018-08-13T18:30:18.725Z,72.30
2018-08-13T18:32:47.343Z,73.00
2018-08-13T18:35:16.307Z,73.40
2018-08-13T18:37:44.850Z,73.90
2018-08-13T18:40:17.406Z,74.60
2018-08-13T18:42:46.057Z,75.00
2018-08-13T18:45:14.671Z,75.70
2018-08-13T18:47:43.208Z,76.50
2018-08-13T18:50:13.921Z,76.90
2018-08-13T18:52:42.815Z,77.60
2018-08-13T18:55:13.174Z,77.90
2018-08-13T18:57:41.793Z,78.20
2018-08-13T19:00:14.660Z,78.90
2018-08-13T19:02:43.553Z,79.50
2018-08-13T19:05:13.526Z,80.20
2018-08-13T19:07:43.281Z,80.00
2018-08-13T19:10:13.414Z,81.10
2018-08-13T19:12:41.968Z,80.80
2018-08-13T19:15:14.199Z,81.00
2018-08-13T19:17:42.733Z,80.70
2018-08-13T19:20:12.667Z,80.80
2018-08-13T19:22:41.638Z,81.00
2018-08-13T19:25:18.668Z,81.60
2018-08-13T19:27:47.262Z,81.70
2018-08-13T19:30:17.144Z,82.20
2018-08-13T19:32:46.829Z,82.80
2018-08-13T19:35:15.352Z,82.90
2018-08-13T19:37:44.321Z,83.30
2018-08-13T19:40:19.506Z,83.30
2018-08-13T19:42:48.934Z,83.90
2018-08-13T19:45:18.147Z,84.40
2018-08-13T19:47:47.053Z,84.80
2018-08-13T19:50:15.922Z,84.80
2018-08-13T19:52:45.709Z,85.00
2018-08-13T19:55:14.538Z,85.80
2018-08-13T19:57:43.064Z,86.40
2018-08-13T20:00:17.600Z,87.00
2018-08-13T20:02:46.850Z,86.80
2018-08-13T20:05:15.422Z,86.80
2018-08-13T20:07:43.997Z,86.80
2018-08-13T20:10:13.702Z,86.70
2018-08-13T20:12:43.025Z,88.00
2018-08-13T20:15:11.770Z,87.90
2018-08-13T20:17:40.858Z,88.90
2018-08-13T20:20:12.357Z,88.70
2018-08-13T20:22:41.228Z,88.90
2018-08-13T20:25:11.322Z,90.10
2018-08-13T20:27:40.153Z,90.60
2018-08-13T20:30:11.046Z,90.50
2018-08-13T20:32:39.600Z,90.40
2018-08-13T20:35:08.151Z,90.80
2018-08-13T20:37:36.716Z,91.30
2018-08-13T20:40:07.242Z,91.50
2018-08-13T20:42:36.249Z,91.70
2018-08-13T20:45:07.396Z,91.50
2018-08-13T20:47:36.101Z,91.40
2018-08-13T20:50:07.213Z,91.10
2018-08-13T20:52:35.846Z,91.00
2018-08-13T20:55:05.718Z,91.30
2018-08-13T20:57:34.266Z,91.60
2018-08-13T21:00:03.122Z,92.00
2018-08-13T21:02:32.079Z,92.40
2018-08-13T21:05:00.548Z,92.90
2018-08-13T21:07:29.466Z,93.30
2018-08-13T21:09:58.152Z,93.60
2018-08-13T21:12:26.680Z,94.00
2018-08-13T21:14:55.589Z,94.80
2018-08-13T21:17:24.208Z,94.70
2018-08-13T21:19:52.683Z,94.80
2018-08-13T21:22:21.782Z,95.10
2018-08-13T21:24:50.331Z,95.20
2018-08-13T21:27:20.094Z,95.00
2018-08-13T21:29:48.693Z,94.90
2018-08-13T21:32:17.245Z,94.70
2018-08-13T21:34:45.793Z,94.40
2018-08-13T21:37:14.867Z,94.30
2018-08-13T21:39:43.437Z,94.00
2018-08-13T21:42:12.024Z,93.90
2018-08-13T21:44:40.701Z,93.60
2018-08-13T21:47:09.479Z,93.50
2018-08-13T21:49:38.105Z,94.00
2018-08-13T21:52:06.525Z,94.20
2018-08-13T21:54:35.170Z,94.20
2018-08-13T21:57:03.655Z,94.80
2018-08-13T21:59:32.833Z,94.60
2018-08-13T22:02:01.396Z,94.10
2018-08-13T22:04:29.870Z,94.30
2018-08-13T22:06:58.391Z,94.30
2018-08-13T22:09:28.023Z,94.40
2018-08-13T22:11:56.534Z,94.30
2018-08-13T22:14:25.341Z,94.30
2018-08-13T22:16:53.933Z,94.70
2018-08-13T22:19:22.569Z,94.60
2018-08-13T22:21:51.173Z,94.80
2018-08-13T22:25:31.383Z,94.80
2018-08-13T22:28:00.391Z,94.70
2018-08-13T22:30:29.816Z,94.30
2018-08-13T22:32:58.287Z,94.30
2018-08-13T22:35:27.222Z,94.00
2018-08-13T22:37:55.795Z,93.90
2018-08-13T22:40:24.312Z,93.80
2018-08-13T22:42:53.103Z,93.50
2018-08-13T22:45:22.683Z,93.50
2018-08-13T22:47:51.148Z,93.60
2018-08-13T22:50:20.055Z,93.30
2018-08-13T22:52:48.681Z,93.30
2018-08-13T22:55:18.612Z,93.10
2018-08-13T22:57:47.302Z,93.10
2018-08-13T23:00:19.052Z,93.10
2018-08-13T23:02:48.658Z,93.10
2018-08-13T23:05:21.970Z,93.20
2018-08-13T23:07:50.572Z,93.20
2018-08-13T23:10:20.474Z,93.30
2018-08-13T23:12:50.459Z,93.20
2018-08-13T23:15:19.564Z,93.20
2018-08-13T23:30:52.530Z,93.20
2018-08-13T23:33:20.998Z,93.20
2018-08-13T23:35:49.518Z,94.40
2018-08-13T23:38:18.085Z,94.40
2018-08-13T23:40:46.545Z,94.30
2018-08-13T23:43:15.341Z,94.10
2018-08-13T23:45:43.805Z,94.10
2018-08-13T23:48:12.299Z,94.10
2018-08-13T23:50:40.855Z,93.90
2018-08-13T23:53:09.520Z,94.00
2018-08-13T23:55:39.412Z,94.00
2018-08-13T23:58:11.311Z,94.00
